sensor_id;sensor_type;location;lat;lon;timestamp;noise_LAeq;noise_LA_min;noise_LA_max;noise_LA01;noise_LA95
74470;Laerm;62918;55.706;37.816;2022-12-18T00:00:01;47.78;43.25;56.79;;
74470;Laerm;62918;55.706;37.816;2022-12-18T00:00:31;54.51;45.04;76.90;;
74470;Laerm;62918;55.706;37.816;2022-12-18T00:01:04;53.82;44.07;74.26;;
74470;Laerm;62918;55.706;37.816;2022-12-18T00:01:37;50.38;44.66;69.25;;
74470;Laerm;62918;55.706;37.816;2022-12-18T00:02:07;48.89;43.60;68.60;;
74470;Laerm;62918;55.706;37.816;2022-12-18T00:02:38;48.82;44.16;54.61;;
74470;Laerm;62918;55.706;37.816;2022-12-18T00:03:09;48.31;43.01;57.63;;
74470;Laerm;62918;55.706;37.816;2022-12-18T00:03:39;47.98;43.48;59.71;;
74470;Laerm;62918;55.706;37.816;2022-12-18T00:04:23;54.66;44.94;73.18;;
74470;Laerm;62918;55.706;37.816;2022-12-18T00:04:54;50.51;43.85;65.70;;
74470;Laerm;62918;55.706;37.816;2022-12-18T00:05:25;48.90;43.85;55.99;;
74470;Laerm;62918;55.706;37.816;2022-12-18T00:05:55;51.95;44.03;75.04;;
74470;Laerm;62918;55.706;37.816;2022-12-18T00:06:27;54.58;45.49;66.14;;
74470;Laerm;62918;55.706;37.816;2022-12-18T00:06:58;50.60;45.11;57.79;;
74470;Laerm;62918;55.706;37.816;2022-12-18T00:07:29;47.32;43.68;59.79;;
74470;Laerm;62918;55.706;37.816;2022-12-18T00:07:59;49.28;43.28;66.40;;
74470;Laerm;62918;55.706;37.816;2022-12-18T00:08:30;47.81;42.89;61.36;;
74470;Laerm;62918;55.706;37.816;2022-12-18T00:09:02;48.49;43.18;62.80;;
74470;Laerm;62918;55.706;37.816;2022-12-18T00:09:33;52.17;44.01;64.72;;
74470;Laerm;62918;55.706;37.816;2022-12-18T00:10:04;59.64;44.56;67.30;;
74470;Laerm;62918;55.706;37.816;2022-12-18T00:10:35;47.76;42.99;58.51;;
74470;Laerm;62918;55.706;37.816;2022-12-18T00:11:11;50.59;42.98;59.80;;
74470;Laerm;62918;55.706;37.816;2022-12-18T00:11:42;47.44;42.75;58.17;;
74470;Laerm;62918;55.706;37.816;2022-12-18T00:12:13;48.15;44.43;56.31;;
74470;Laerm;62918;55.706;37.816;2022-12-18T00:12:43;47.94;42.97;52.66;;
74470;Laerm;62918;55.706;37.816;2022-12-18T00:13:14;47.16;43.96;50.89;;
74470;Laerm;62918;55.706;37.816;2022-12-18T00:13:45;51.25;44.44;57.80;;
74470;Laerm;62918;55.706;37.816;2022-12-18T00:14:16;47.20;43.21;56.84;;
74470;Laerm;62918;55.706;37.816;2022-12-18T00:14:47;47.97;42.83;57.96;;
74470;Laerm;62918;55.706;37.816;2022-12-18T00:15:17;52.60;46.39;64.95;;
74470;Laerm;62918;55.706;37.816;2022-12-18T00:15:48;49.61;43.61;63.16;;
74470;Laerm;62918;55.706;37.816;2022-12-18T00:16:21;46.73;42.74;65.16;;
74470;Laerm;62918;55.706;37.816;2022-12-18T00:16:52;48.52;43.50;66.20;;
74470;Laerm;62918;55.706;37.816;2022-12-18T00:17:22;46.53;42.74;54.72;;
74470;Laerm;62918;55.706;37.816;2022-12-18T00:17:53;48.66;42.87;63.14;;
74470;Laerm;62918;55.706;37.816;2022-12-18T00:18:23;51.87;43.58;75.66;;
74470;Laerm;62918;55.706;37.816;2022-12-18T00:18:55;49.25;42.90;70.63;;
74470;Laerm;62918;55.706;37.816;2022-12-18T00:19:26;52.13;42.94;74.57;;
74470;Laerm;62918;55.706;37.816;2022-12-18T00:19:57;46.77;41.61;60.83;;
74470;Laerm;62918;55.706;37.816;2022-12-18T00:20:27;48.91;41.64;64.49;;
74470;Laerm;62918;55.706;37.816;2022-12-18T00:21:00;50.17;43.78;61.77;;
74470;Laerm;62918;55.706;37.816;2022-12-18T00:21:32;49.01;42.89;55.94;;
74470;Laerm;62918;55.706;37.816;2022-12-18T00:22:03;49.56;45.70;59.42;;
74470;Laerm;62918;55.706;37.816;2022-12-18T00:22:33;52.30;43.65;68.14;;
74470;Laerm;62918;55.706;37.816;2022-12-18T00:23:05;53.22;44.08;71.84;;
74470;Laerm;62918;55.706;37.816;2022-12-18T00:23:37;52.82;43.59;65.45;;
74470;Laerm;62918;55.706;37.816;2022-12-18T00:24:08;48.03;42.45;64.72;;
74470;Laerm;62918;55.706;37.816;2022-12-18T00:24:39;48.38;42.10;67.04;;
74470;Laerm;62918;55.706;37.816;2022-12-18T00:25:10;46.27;42.15;55.30;;
74470;Laerm;62918;55.706;37.816;2022-12-18T00:25:40;52.41;43.87;63.21;;
74470;Laerm;62918;55.706;37.816;2022-12-18T00:26:14;48.26;42.46;59.87;;
74470;Laerm;62918;55.706;37.816;2022-12-18T00:26:45;53.55;44.17;72.11;;
74470;Laerm;62918;55.706;37.816;2022-12-18T00:27:15;50.50;43.68;65.80;;
74470;Laerm;62918;55.706;37.816;2022-12-18T00:27:46;58.60;43.97;69.39;;
74470;Laerm;62918;55.706;37.816;2022-12-18T00:28:16;52.38;44.21;69.55;;
74470;Laerm;62918;55.706;37.816;2022-12-18T00:28:47;48.89;44.03;53.72;;
74470;Laerm;62918;55.706;37.816;2022-12-18T00:29:18;49.54;43.60;61.98;;
74470;Laerm;62918;55.706;37.816;2022-12-18T00:29:49;47.61;42.30;57.41;;
74470;Laerm;62918;55.706;37.816;2022-12-18T00:30:19;47.80;41.62;64.31;;
74470;Laerm;62918;55.706;37.816;2022-12-18T00:30:50;49.92;42.14;67.79;;
74470;Laerm;62918;55.706;37.816;2022-12-18T00:31:23;46.35;41.63;53.29;;
74470;Laerm;62918;55.706;37.816;2022-12-18T00:31:53;49.50;43.02;67.19;;
74470;Laerm;62918;55.706;37.816;2022-12-18T00:32:24;51.31;43.44;71.11;;
74470;Laerm;62918;55.706;37.816;2022-12-18T00:32:57;49.38;43.23;59.89;;
74470;Laerm;62918;55.706;37.816;2022-12-18T00:33:28;47.75;43.08;57.37;;
74470;Laerm;62918;55.706;37.816;2022-12-18T00:33:58;46.22;42.79;54.83;;
74470;Laerm;62918;55.706;37.816;2022-12-18T00:34:29;45.30;41.12;53.06;;
74470;Laerm;62918;55.706;37.816;2022-12-18T00:34:59;51.66;41.29;72.75;;
74470;Laerm;62918;55.706;37.816;2022-12-18T00:35:31;46.93;42.24;61.39;;
74470;Laerm;62918;55.706;37.816;2022-12-18T00:36:10;52.12;42.99;64.70;;
74470;Laerm;62918;55.706;37.816;2022-12-18T00:36:41;52.33;43.96;62.19;;
74470;Laerm;62918;55.706;37.816;2022-12-18T00:37:12;47.70;42.65;59.15;;
74470;Laerm;62918;55.706;37.816;2022-12-18T00:37:42;47.85;42.56;62.88;;
74470;Laerm;62918;55.706;37.816;2022-12-18T00:38:13;46.50;42.35;56.92;;
74470;Laerm;62918;55.706;37.816;2022-12-18T00:38:44;45.40;42.22;51.95;;
74470;Laerm;62918;55.706;37.816;2022-12-18T00:39:14;47.71;43.83;52.64;;
74470;Laerm;62918;55.706;37.816;2022-12-18T00:39:45;51.22;44.29;57.61;;
74470;Laerm;62918;55.706;37.816;2022-12-18T00:40:18;49.62;44.09;64.21;;
74470;Laerm;62918;55.706;37.816;2022-12-18T00:40:48;52.41;43.07;71.57;;
74470;Laerm;62918;55.706;37.816;2022-12-18T00:41:19;52.85;44.24;70.28;;
74470;Laerm;62918;55.706;37.816;2022-12-18T00:42:10;51.20;43.84;67.53;;
74470;Laerm;62918;55.706;37.816;2022-12-18T00:42:59;49.58;43.13;64.84;;
74470;Laerm;62918;55.706;37.816;2022-12-18T00:43:29;49.79;42.89;65.05;;
74470;Laerm;62918;55.706;37.816;2022-12-18T00:44:00;51.02;42.06;72.18;;
74470;Laerm;62918;55.706;37.816;2022-12-18T00:44:31;48.71;43.70;59.27;;
74470;Laerm;62918;55.706;37.816;2022-12-18T00:45:01;48.38;44.08;62.37;;
74470;Laerm;62918;55.706;37.816;2022-12-18T00:45:32;50.71;44.86;65.47;;
74470;Laerm;62918;55.706;37.816;2022-12-18T00:46:02;48.74;44.62;56.29;;
74470;Laerm;62918;55.706;37.816;2022-12-18T00:46:33;51.21;44.76;67.92;;
74470;Laerm;62918;55.706;37.816;2022-12-18T00:47:04;63.61;51.63;70.90;;
74470;Laerm;62918;55.706;37.816;2022-12-18T00:47:34;54.91;45.84;70.83;;
74470;Laerm;62918;55.706;37.816;2022-12-18T00:48:05;51.35;46.66;62.21;;
74470;Laerm;62918;55.706;37.816;2022-12-18T00:48:36;50.02;44.93;59.09;;
74470;Laerm;62918;55.706;37.816;2022-12-18T00:49:06;49.88;43.02;72.18;;
74470;Laerm;62918;55.706;37.816;2022-12-18T00:49:37;48.95;41.66;66.60;;
74470;Laerm;62918;55.706;37.816;2022-12-18T00:50:08;46.45;42.33;60.76;;
74470;Laerm;62918;55.706;37.816;2022-12-18T00:50:39;47.33;42.41;59.54;;
74470;Laerm;62918;55.706;37.816;2022-12-18T00:51:09;48.16;43.09;61.13;;
74470;Laerm;62918;55.706;37.816;2022-12-18T00:51:40;54.65;43.53;72.93;;
74470;Laerm;62918;55.706;37.816;2022-12-18T00:52:11;52.68;42.91;72.70;;
74470;Laerm;62918;55.706;37.816;2022-12-18T00:52:42;47.76;43.22;58.84;;
74470;Laerm;62918;55.706;37.816;2022-12-18T00:53:12;45.31;41.85;52.90;;
74470;Laerm;62918;55.706;37.816;2022-12-18T00:53:43;49.28;42.47;65.35;;
74470;Laerm;62918;55.706;37.816;2022-12-18T00:54:14;52.12;43.01;69.06;;
74470;Laerm;62918;55.706;37.816;2022-12-18T00:54:45;48.31;41.64;66.09;;
74470;Laerm;62918;55.706;37.816;2022-12-18T00:55:16;47.32;41.69;61.38;;
74470;Laerm;62918;55.706;37.816;2022-12-18T00:55:47;49.38;41.57;63.14;;
74470;Laerm;62918;55.706;37.816;2022-12-18T00:56:20;46.76;41.99;57.39;;
74470;Laerm;62918;55.706;37.816;2022-12-18T00:56:51;45.70;41.62;57.46;;
74470;Laerm;62918;55.706;37.816;2022-12-18T00:57:22;44.87;41.82;47.63;;
74470;Laerm;62918;55.706;37.816;2022-12-18T00:57:52;48.25;41.47;65.33;;
74470;Laerm;62918;55.706;37.816;2022-12-18T00:58:23;45.22;41.14;52.66;;
74470;Laerm;62918;55.706;37.816;2022-12-18T00:58:54;46.86;41.82;61.54;;
74470;Laerm;62918;55.706;37.816;2022-12-18T00:59:24;48.53;43.05;65.00;;
74470;Laerm;62918;55.706;37.816;2022-12-18T00:59:55;55.61;42.96;67.83;;
74470;Laerm;62918;55.706;37.816;2022-12-18T01:00:25;46.80;41.86;66.27;;
74470;Laerm;62918;55.706;37.816;2022-12-18T01:00:56;46.53;42.12;55.84;;
74470;Laerm;62918;55.706;37.816;2022-12-18T01:01:26;49.10;43.83;56.08;;
74470;Laerm;62918;55.706;37.816;2022-12-18T01:01:57;56.84;45.78;64.86;;
74470;Laerm;62918;55.706;37.816;2022-12-18T01:02:27;59.85;48.29;67.82;;
74470;Laerm;62918;55.706;37.816;2022-12-18T01:03:00;58.96;44.56;66.90;;
74470;Laerm;62918;55.706;37.816;2022-12-18T01:03:31;47.25;43.37;55.61;;
74470;Laerm;62918;55.706;37.816;2022-12-18T01:04:02;46.09;42.78;49.64;;
74470;Laerm;62918;55.706;37.816;2022-12-18T01:04:34;47.45;42.53;56.75;;
74470;Laerm;62918;55.706;37.816;2022-12-18T01:05:05;46.05;42.24;52.75;;
74470;Laerm;62918;55.706;37.816;2022-12-18T01:05:41;46.64;41.67;53.32;;
74470;Laerm;62918;55.706;37.816;2022-12-18T01:06:13;46.08;42.14;57.74;;
74470;Laerm;62918;55.706;37.816;2022-12-18T01:06:44;48.03;43.66;53.60;;
74470;Laerm;62918;55.706;37.816;2022-12-18T01:07:15;46.43;42.06;59.20;;
74470;Laerm;62918;55.706;37.816;2022-12-18T01:07:45;48.27;42.24;64.18;;
74470;Laerm;62918;55.706;37.816;2022-12-18T01:08:16;50.24;43.42;68.74;;
74470;Laerm;62918;55.706;37.816;2022-12-18T01:08:46;52.05;42.76;66.17;;
74470;Laerm;62918;55.706;37.816;2022-12-18T01:09:17;50.43;42.86;70.26;;
74470;Laerm;62918;55.706;37.816;2022-12-18T01:09:47;48.28;42.34;56.74;;
74470;Laerm;62918;55.706;37.816;2022-12-18T01:10:18;47.73;41.71;60.37;;
74470;Laerm;62918;55.706;37.816;2022-12-18T01:10:49;50.55;43.89;68.66;;
74470;Laerm;62918;55.706;37.816;2022-12-18T01:11:20;59.25;44.27;75.91;;
74470;Laerm;62918;55.706;37.816;2022-12-18T01:11:51;51.20;43.02;69.72;;
74470;Laerm;62918;55.706;37.816;2022-12-18T01:12:21;46.37;43.08;55.79;;
74470;Laerm;62918;55.706;37.816;2022-12-18T01:12:52;47.51;42.08;59.20;;
74470;Laerm;62918;55.706;37.816;2022-12-18T01:13:22;49.51;42.43;59.68;;
74470;Laerm;62918;55.706;37.816;2022-12-18T01:13:54;52.08;44.47;61.04;;
74470;Laerm;62918;55.706;37.816;2022-12-18T01:14:25;51.22;44.15;56.73;;
74470;Laerm;62918;55.706;37.816;2022-12-18T01:14:55;51.35;44.86;59.88;;
74470;Laerm;62918;55.706;37.816;2022-12-18T01:15:26;47.40;42.84;57.60;;
74470;Laerm;62918;55.706;37.816;2022-12-18T01:15:56;47.53;43.93;54.28;;
74470;Laerm;62918;55.706;37.816;2022-12-18T01:16:27;49.65;43.86;58.03;;
74470;Laerm;62918;55.706;37.816;2022-12-18T01:16:57;51.43;44.78;57.84;;
74470;Laerm;62918;55.706;37.816;2022-12-18T01:17:28;51.22;44.11;64.79;;
74470;Laerm;62918;55.706;37.816;2022-12-18T01:17:59;48.79;44.50;59.87;;
74470;Laerm;62918;55.706;37.816;2022-12-18T01:18:29;62.59;46.40;70.12;;
74470;Laerm;62918;55.706;37.816;2022-12-18T01:19:00;54.95;44.37;65.79;;
74470;Laerm;62918;55.706;37.816;2022-12-18T01:19:30;45.10;41.63;49.64;;
74470;Laerm;62918;55.706;37.816;2022-12-18T01:20:01;45.07;41.32;48.62;;
74470;Laerm;62918;55.706;37.816;2022-12-18T01:20:31;45.15;42.02;49.92;;
74470;Laerm;62918;55.706;37.816;2022-12-18T01:21:11;49.20;43.19;57.98;;
74470;Laerm;62918;55.706;37.816;2022-12-18T01:21:41;45.89;41.09;59.00;;
74470;Laerm;62918;55.706;37.816;2022-12-18T01:22:12;62.20;42.07;75.95;;
74470;Laerm;62918;55.706;37.816;2022-12-18T01:22:42;66.26;44.79;78.78;;
74470;Laerm;62918;55.706;37.816;2022-12-18T01:23:13;50.55;42.38;64.52;;
74470;Laerm;62918;55.706;37.816;2022-12-18T01:23:44;47.70;42.92;59.17;;
74470;Laerm;62918;55.706;37.816;2022-12-18T01:24:14;46.29;41.86;52.54;;
74470;Laerm;62918;55.706;37.816;2022-12-18T01:24:45;46.15;39.43;58.00;;
74470;Laerm;62918;55.706;37.816;2022-12-18T01:25:15;45.65;41.17;56.82;;
74470;Laerm;62918;55.706;37.816;2022-12-18T01:25:46;46.73;41.99;56.09;;
74470;Laerm;62918;55.706;37.816;2022-12-18T01:26:17;51.09;42.45;66.36;;
74470;Laerm;62918;55.706;37.816;2022-12-18T01:26:47;53.29;44.23;76.72;;
74470;Laerm;62918;55.706;37.816;2022-12-18T01:27:18;49.14;43.13;56.29;;
74470;Laerm;62918;55.706;37.816;2022-12-18T01:27:48;58.66;46.55;69.17;;
74470;Laerm;62918;55.706;37.816;2022-12-18T01:28:19;53.89;43.25;63.70;;
74470;Laerm;62918;55.706;37.816;2022-12-18T01:28:49;47.72;43.47;58.93;;
74470;Laerm;62918;55.706;37.816;2022-12-18T01:29:20;46.58;42.26;50.10;;
74470;Laerm;62918;55.706;37.816;2022-12-18T01:29:50;48.11;43.82;56.11;;
74470;Laerm;62918;55.706;37.816;2022-12-18T01:30:21;48.95;43.99;59.79;;
74470;Laerm;62918;55.706;37.816;2022-12-18T01:30:51;63.82;44.24;75.76;;
74470;Laerm;62918;55.706;37.816;2022-12-18T01:31:23;59.72;42.67;72.08;;
74470;Laerm;62918;55.706;37.816;2022-12-18T01:31:55;48.52;41.96;69.23;;
74470;Laerm;62918;55.706;37.816;2022-12-18T01:32:26;48.17;41.49;67.69;;
74470;Laerm;62918;55.706;37.816;2022-12-18T01:32:59;45.41;40.47;60.93;;
74470;Laerm;62918;55.706;37.816;2022-12-18T01:33:29;46.75;42.50;60.86;;
74470;Laerm;62918;55.706;37.816;2022-12-18T01:34:01;48.76;42.09;67.28;;
74470;Laerm;62918;55.706;37.816;2022-12-18T01:34:31;47.62;41.08;60.38;;
74470;Laerm;62918;55.706;37.816;2022-12-18T01:35:02;46.50;42.00;58.24;;
74470;Laerm;62918;55.706;37.816;2022-12-18T01:35:51;45.51;41.93;50.92;;
74470;Laerm;62918;55.706;37.816;2022-12-18T01:36:24;46.19;42.36;59.58;;
74470;Laerm;62918;55.706;37.816;2022-12-18T01:36:55;49.19;42.13;66.86;;
74470;Laerm;62918;55.706;37.816;2022-12-18T01:37:26;46.77;41.17;54.17;;
74470;Laerm;62918;55.706;37.816;2022-12-18T01:37:57;49.97;40.97;68.77;;
74470;Laerm;62918;55.706;37.816;2022-12-18T01:38:28;46.18;42.50;56.31;;
74470;Laerm;62918;55.706;37.816;2022-12-18T01:39:04;48.12;43.27;54.96;;
74470;Laerm;62918;55.706;37.816;2022-12-18T01:39:35;48.32;42.74;55.96;;
74470;Laerm;62918;55.706;37.816;2022-12-18T01:40:06;47.07;43.16;60.55;;
74470;Laerm;62918;55.706;37.816;2022-12-18T01:40:37;46.46;42.70;53.73;;
74470;Laerm;62918;55.706;37.816;2022-12-18T01:41:09;48.98;42.48;68.78;;
74470;Laerm;62918;55.706;37.816;2022-12-18T01:41:40;45.97;41.50;55.63;;
74470;Laerm;62918;55.706;37.816;2022-12-18T01:42:28;46.39;40.95;54.62;;
74470;Laerm;62918;55.706;37.816;2022-12-18T01:42:59;48.49;41.15;70.95;;
74470;Laerm;62918;55.706;37.816;2022-12-18T01:43:43;48.23;41.76;68.68;;
74470;Laerm;62918;55.706;37.816;2022-12-18T01:45:24;49.20;42.66;65.87;;
74470;Laerm;62918;55.706;37.816;2022-12-18T01:45:59;53.17;45.66;59.80;;
74470;Laerm;62918;55.706;37.816;2022-12-18T01:46:30;48.92;44.70;55.73;;
74470;Laerm;62918;55.706;37.816;2022-12-18T01:47:00;48.46;42.45;62.31;;
74470;Laerm;62918;55.706;37.816;2022-12-18T01:48:15;59.50;53.06;70.22;;
74470;Laerm;62918;55.706;37.816;2022-12-18T01:48:47;49.89;44.28;61.65;;
74470;Laerm;62918;55.706;37.816;2022-12-18T01:49:19;49.56;44.34;61.78;;
74470;Laerm;62918;55.706;37.816;2022-12-18T01:49:50;48.09;42.57;62.36;;
74470;Laerm;62918;55.706;37.816;2022-12-18T01:50:22;56.13;44.16;74.53;;
74470;Laerm;62918;55.706;37.816;2022-12-18T01:50:54;48.61;41.73;67.72;;
74470;Laerm;62918;55.706;37.816;2022-12-18T01:51:25;45.76;42.13;55.90;;
74470;Laerm;62918;55.706;37.816;2022-12-18T01:51:57;47.03;42.24;51.84;;
74470;Laerm;62918;55.706;37.816;2022-12-18T01:52:29;45.66;41.68;58.42;;
74470;Laerm;62918;55.706;37.816;2022-12-18T01:53:05;53.49;41.54;62.39;;
74470;Laerm;62918;55.706;37.816;2022-12-18T01:53:38;48.87;42.36;64.12;;
74470;Laerm;62918;55.706;37.816;2022-12-18T01:54:09;46.20;42.02;54.41;;
74470;Laerm;62918;55.706;37.816;2022-12-18T01:54:40;51.77;42.04;58.05;;
74470;Laerm;62918;55.706;37.816;2022-12-18T01:55:11;48.56;41.68;59.28;;
74470;Laerm;62918;55.706;37.816;2022-12-18T01:55:49;49.33;41.90;69.63;;
74470;Laerm;62918;55.706;37.816;2022-12-18T01:56:21;51.60;42.55;71.44;;
74470;Laerm;62918;55.706;37.816;2022-12-18T01:56:52;51.98;45.33;65.82;;
74470;Laerm;62918;55.706;37.816;2022-12-18T01:57:23;50.45;43.70;64.79;;
74470;Laerm;62918;55.706;37.816;2022-12-18T01:57:55;47.37;42.69;61.29;;
74470;Laerm;62918;55.706;37.816;2022-12-18T01:58:37;45.98;42.04;56.75;;
74470;Laerm;62918;55.706;37.816;2022-12-18T01:59:11;47.62;42.25;60.24;;
74470;Laerm;62918;55.706;37.816;2022-12-18T01:59:45;49.24;45.49;64.13;;
74470;Laerm;62918;55.706;37.816;2022-12-18T02:00:20;46.16;40.79;57.83;;
74470;Laerm;62918;55.706;37.816;2022-12-18T02:00:51;49.27;43.51;60.60;;
74470;Laerm;62918;55.706;37.816;2022-12-18T02:01:23;50.10;42.80;62.45;;
74470;Laerm;62918;55.706;37.816;2022-12-18T02:01:54;51.20;44.41;59.81;;
74470;Laerm;62918;55.706;37.816;2022-12-18T02:02:26;52.19;44.07;63.43;;
74470;Laerm;62918;55.706;37.816;2022-12-18T02:02:58;52.61;48.15;62.50;;
74470;Laerm;62918;55.706;37.816;2022-12-18T02:03:29;49.96;46.41;59.06;;
74470;Laerm;62918;55.706;37.816;2022-12-18T02:04:22;53.07;45.58;60.91;;
74470;Laerm;62918;55.706;37.816;2022-12-18T02:04:53;49.13;42.86;58.65;;
74470;Laerm;62918;55.706;37.816;2022-12-18T02:06:39;48.17;41.32;68.39;;
74470;Laerm;62918;55.706;37.816;2022-12-18T02:07:12;48.22;42.76;64.76;;
74470;Laerm;62918;55.706;37.816;2022-12-18T02:09:20;52.22;42.91;74.45;;
74470;Laerm;62918;55.706;37.816;2022-12-18T02:10:17;49.82;44.34;64.98;;
74470;Laerm;62918;55.706;37.816;2022-12-18T02:11:05;51.46;44.74;60.58;;
74470;Laerm;62918;55.706;37.816;2022-12-18T02:13:36;50.96;41.97;68.87;;
74470;Laerm;62918;55.706;37.816;2022-12-18T02:15:42;49.44;41.46;63.92;;
74470;Laerm;62918;55.706;37.816;2022-12-18T02:17:47;47.61;43.36;57.71;;
74470;Laerm;62918;55.706;37.816;2022-12-18T02:18:30;48.86;42.90;58.96;;
74470;Laerm;62918;55.706;37.816;2022-12-18T02:20:39;47.25;43.84;58.22;;
74470;Laerm;62918;55.706;37.816;2022-12-18T02:22:34;49.33;44.07;63.36;;
74470;Laerm;62918;55.706;37.816;2022-12-18T02:24:35;58.81;45.86;65.19;;
74470;Laerm;62918;55.706;37.816;2022-12-18T02:25:34;47.23;42.52;54.86;;
74470;Laerm;62918;55.706;37.816;2022-12-18T02:26:27;46.89;41.49;59.34;;
74470;Laerm;62918;55.706;37.816;2022-12-18T02:27:05;47.91;42.43;63.77;;
74470;Laerm;62918;55.706;37.816;2022-12-18T02:27:37;51.08;44.87;61.48;;
74470;Laerm;62918;55.706;37.816;2022-12-18T02:28:11;50.86;44.87;57.61;;
74470;Laerm;62918;55.706;37.816;2022-12-18T02:29:31;54.61;43.57;64.40;;
74470;Laerm;62918;55.706;37.816;2022-12-18T02:30:03;51.66;45.11;61.50;;
74470;Laerm;62918;55.706;37.816;2022-12-18T02:30:37;50.06;44.15;68.34;;
74470;Laerm;62918;55.706;37.816;2022-12-18T02:31:13;46.96;42.44;56.17;;
74470;Laerm;62918;55.706;37.816;2022-12-18T02:31:57;47.54;42.21;63.98;;
74470;Laerm;62918;55.706;37.816;2022-12-18T02:32:34;47.33;41.80;67.77;;
74470;Laerm;62918;55.706;37.816;2022-12-18T02:33:08;48.17;43.38;62.31;;
74470;Laerm;62918;55.706;37.816;2022-12-18T02:33:40;47.80;43.52;61.25;;
74470;Laerm;62918;55.706;37.816;2022-12-18T02:34:13;46.97;42.63;59.64;;
74470;Laerm;62918;55.706;37.816;2022-12-18T02:34:46;50.51;43.59;58.79;;
74470;Laerm;62918;55.706;37.816;2022-12-18T02:35:23;49.87;43.44;58.59;;
74470;Laerm;62918;55.706;37.816;2022-12-18T02:35:56;51.51;44.02;67.95;;
74470;Laerm;62918;55.706;37.816;2022-12-18T02:36:28;52.84;46.65;59.41;;
74470;Laerm;62918;55.706;37.816;2022-12-18T02:37:04;51.88;47.71;60.30;;
74470;Laerm;62918;55.706;37.816;2022-12-18T02:37:37;53.50;46.74;60.70;;
74470;Laerm;62918;55.706;37.816;2022-12-18T02:38:11;50.12;44.28;58.78;;
74470;Laerm;62918;55.706;37.816;2022-12-18T02:38:43;48.32;43.13;61.39;;
74470;Laerm;62918;55.706;37.816;2022-12-18T02:39:15;53.76;45.24;70.62;;
74470;Laerm;62918;55.706;37.816;2022-12-18T02:39:48;52.61;43.57;71.79;;
74470;Laerm;62918;55.706;37.816;2022-12-18T02:40:21;50.26;45.54;57.26;;
74470;Laerm;62918;55.706;37.816;2022-12-18T02:40:53;51.68;44.85;57.01;;
74470;Laerm;62918;55.706;37.816;2022-12-18T02:41:25;50.70;43.58;58.91;;
74470;Laerm;62918;55.706;37.816;2022-12-18T02:41:57;46.32;42.88;54.49;;
74470;Laerm;62918;55.706;37.816;2022-12-18T02:42:28;47.67;43.10;64.13;;
74470;Laerm;62918;55.706;37.816;2022-12-18T02:43:14;49.88;43.54;63.70;;
74470;Laerm;62918;55.706;37.816;2022-12-18T02:43:48;49.63;43.16;66.22;;
74470;Laerm;62918;55.706;37.816;2022-12-18T02:44:19;48.34;43.44;62.63;;
74470;Laerm;62918;55.706;37.816;2022-12-18T02:44:51;48.04;43.86;58.56;;
74470;Laerm;62918;55.706;37.816;2022-12-18T02:45:21;47.01;42.55;59.81;;
74470;Laerm;62918;55.706;37.816;2022-12-18T02:45:56;48.68;42.50;59.22;;
74470;Laerm;62918;55.706;37.816;2022-12-18T02:46:33;50.29;43.80;65.55;;
74470;Laerm;62918;55.706;37.816;2022-12-18T02:47:05;53.79;43.46;66.00;;
74470;Laerm;62918;55.706;37.816;2022-12-18T02:47:40;51.19;43.69;62.18;;
74470;Laerm;62918;55.706;37.816;2022-12-18T02:48:12;53.63;46.89;66.83;;
74470;Laerm;62918;55.706;37.816;2022-12-18T02:48:43;57.86;50.19;65.13;;
74470;Laerm;62918;55.706;37.816;2022-12-18T02:50:16;54.27;47.95;76.07;;
74470;Laerm;62918;55.706;37.816;2022-12-18T02:51:43;63.12;54.81;74.23;;
74470;Laerm;62918;55.706;37.816;2022-12-18T02:52:38;61.49;50.04;76.89;;
74470;Laerm;62918;55.706;37.816;2022-12-18T02:53:27;58.70;49.93;67.07;;
74470;Laerm;62918;55.706;37.816;2022-12-18T02:54:08;62.86;57.86;68.18;;
74470;Laerm;62918;55.706;37.816;2022-12-18T02:54:51;60.60;57.71;66.41;;
74470;Laerm;62918;55.706;37.816;2022-12-18T02:56:25;49.55;44.92;55.39;;
74470;Laerm;62918;55.706;37.816;2022-12-18T02:57:02;49.56;45.55;59.17;;
74470;Laerm;62918;55.706;37.816;2022-12-18T02:57:56;50.68;45.91;67.07;;
74470;Laerm;62918;55.706;37.816;2022-12-18T02:58:48;49.43;42.91;64.84;;
74470;Laerm;62918;55.706;37.816;2022-12-18T02:59:30;51.33;43.79;74.83;;
74470;Laerm;62918;55.706;37.816;2022-12-18T03:00:10;49.93;45.00;63.77;;
74470;Laerm;62918;55.706;37.816;2022-12-18T03:00:48;53.22;44.16;59.64;;
74470;Laerm;62918;55.706;37.816;2022-12-18T03:01:34;50.41;44.74;63.37;;
74470;Laerm;62918;55.706;37.816;2022-12-18T03:03:03;49.45;44.76;56.60;;
74470;Laerm;62918;55.706;37.816;2022-12-18T03:03:43;51.99;46.15;65.92;;
74470;Laerm;62918;55.706;37.816;2022-12-18T03:04:21;54.93;48.05;64.11;;
74470;Laerm;62918;55.706;37.816;2022-12-18T03:05:25;53.66;45.16;63.23;;
74470;Laerm;62918;55.706;37.816;2022-12-18T03:06:06;49.49;45.56;56.29;;
74470;Laerm;62918;55.706;37.816;2022-12-18T03:06:42;51.21;45.68;62.64;;
74470;Laerm;62918;55.706;37.816;2022-12-18T03:07:56;49.29;43.77;62.26;;
74470;Laerm;62918;55.706;37.816;2022-12-18T03:08:31;55.29;48.64;61.77;;
74470;Laerm;62918;55.706;37.816;2022-12-18T03:09:10;58.15;52.42;67.86;;
74470;Laerm;62918;55.706;37.816;2022-12-18T03:09:48;61.50;54.06;68.92;;
74470;Laerm;62918;55.706;37.816;2022-12-18T03:10:25;63.72;49.98;70.49;;
74470;Laerm;62918;55.706;37.816;2022-12-18T03:11:04;54.46;49.19;68.05;;
74470;Laerm;62918;55.706;37.816;2022-12-18T03:11:40;49.23;44.31;63.06;;
74470;Laerm;62918;55.706;37.816;2022-12-18T03:12:34;50.51;44.52;65.08;;
74470;Laerm;62918;55.706;37.816;2022-12-18T03:13:09;59.12;51.65;64.54;;
74470;Laerm;62918;55.706;37.816;2022-12-18T03:13:51;51.28;47.13;60.20;;
74470;Laerm;62918;55.706;37.816;2022-12-18T03:14:25;62.50;47.80;75.21;;
74470;Laerm;62918;55.706;37.816;2022-12-18T03:15:10;58.05;46.47;76.09;;
74470;Laerm;62918;55.706;37.816;2022-12-18T03:15:45;52.75;47.90;59.58;;
74470;Laerm;62918;55.706;37.816;2022-12-18T03:16:22;53.96;47.91;60.32;;
74470;Laerm;62918;55.706;37.816;2022-12-18T03:16:58;53.26;45.13;61.94;;
74470;Laerm;62918;55.706;37.816;2022-12-18T03:17:32;54.53;48.11;62.48;;
74470;Laerm;62918;55.706;37.816;2022-12-18T03:18:08;54.30;47.25;66.86;;
74470;Laerm;62918;55.706;37.816;2022-12-18T03:18:59;51.19;45.19;63.10;;
74470;Laerm;62918;55.706;37.816;2022-12-18T03:19:32;52.30;46.51;67.58;;
74470;Laerm;62918;55.706;37.816;2022-12-18T03:20:05;54.78;47.41;65.71;;
74470;Laerm;62918;55.706;37.816;2022-12-18T03:20:39;56.94;48.82;63.99;;
74470;Laerm;62918;55.706;37.816;2022-12-18T03:21:11;56.80;47.97;68.32;;
74470;Laerm;62918;55.706;37.816;2022-12-18T03:21:47;51.29;44.59;71.51;;
74470;Laerm;62918;55.706;37.816;2022-12-18T03:22:19;49.10;45.26;57.33;;
74470;Laerm;62918;55.706;37.816;2022-12-18T03:22:54;52.52;47.70;63.06;;
74470;Laerm;62918;55.706;37.816;2022-12-18T03:23:30;54.87;48.26;61.10;;